sensor_id;sensor_type;location;lat;lon;timestamp;P1;durP1;ratioP1;P2;durP2;ratioP2
4786;SDS011;62338;48.832;9.422;2023-07-28T00:00:55;7.23;;;2.80;;
4786;SDS011;62338;48.832;9.422;2023-07-28T00:02:56;3.20;;;2.57;;
4786;SDS011;62338;48.832;9.422;2023-07-28T00:04:58;4.53;;;2.50;;
4786;SDS011;62338;48.832;9.422;2023-07-28T00:07:00;2.40;;;2.20;;
4786;SDS011;62338;48.832;9.422;2023-07-28T00:09:02;2.67;;;2.40;;
4786;SDS011;62338;48.832;9.422;2023-07-28T00:11:08;4.10;;;2.70;;
4786;SDS011;62338;48.832;9.422;2023-07-28T00:13:11;3.17;;;2.53;;
4786;SDS011;62338;48.832;9.422;2023-07-28T00:15:13;2.80;;;2.17;;
4786;SDS011;62338;48.832;9.422;2023-07-28T00:17:14;9.33;;;2.60;;
4786;SDS011;62338;48.832;9.422;2023-07-28T00:19:16;3.00;;;2.30;;
4786;SDS011;62338;48.832;9.422;2023-07-28T00:21:18;3.60;;;2.40;;
4786;SDS011;62338;48.832;9.422;2023-07-28T00:23:20;2.83;;;2.50;;
4786;SDS011;62338;48.832;9.422;2023-07-28T00:25:21;2.63;;;2.43;;
4786;SDS011;62338;48.832;9.422;2023-07-28T00:27:23;2.57;;;2.37;;
4786;SDS011;62338;48.832;9.422;2023-07-28T00:29:25;3.00;;;2.43;;
4786;SDS011;62338;48.832;9.422;2023-07-28T00:31:27;5.97;;;2.40;;
4786;SDS011;62338;48.832;9.422;2023-07-28T00:33:29;3.00;;;2.50;;
4786;SDS011;62338;48.832;9.422;2023-07-28T00:35:31;2.87;;;2.53;;
4786;SDS011;62338;48.832;9.422;2023-07-28T00:37:33;17.47;;;3.47;;
4786;SDS011;62338;48.832;9.422;2023-07-28T00:39:35;2.47;;;2.27;;
4786;SDS011;62338;48.832;9.422;2023-07-28T00:41:37;3.00;;;2.70;;
4786;SDS011;62338;48.832;9.422;2023-07-28T00:43:38;2.90;;;2.60;;
4786;SDS011;62338;48.832;9.422;2023-07-28T00:45:40;2.57;;;2.20;;
4786;SDS011;62338;48.832;9.422;2023-07-28T00:47:42;3.30;;;2.70;;
4786;SDS011;62338;48.832;9.422;2023-07-28T00:49:44;3.30;;;3.00;;
4786;SDS011;62338;48.832;9.422;2023-07-28T00:51:47;2.67;;;2.40;;
4786;SDS011;62338;48.832;9.422;2023-07-28T00:53:50;2.57;;;2.37;;
4786;SDS011;62338;48.832;9.422;2023-07-28T00:55:54;3.20;;;2.40;;
4786;SDS011;62338;48.832;9.422;2023-07-28T00:57:56;3.17;;;2.70;;
4786;SDS011;62338;48.832;9.422;2023-07-28T00:59:58;3.30;;;2.53;;
4786;SDS011;62338;48.832;9.422;2023-07-28T01:02:01;2.40;;;2.00;;
4786;SDS011;62338;48.832;9.422;2023-07-28T01:04:03;6.93;;;2.70;;
4786;SDS011;62338;48.832;9.422;2023-07-28T01:08:22;3.13;;;2.83;;
4786;SDS011;62338;48.832;9.422;2023-07-28T01:10:36;2.87;;;2.67;;
4786;SDS011;62338;48.832;9.422;2023-07-28T01:12:40;4.60;;;2.97;;
4786;SDS011;62338;48.832;9.422;2023-07-28T01:14:43;2.87;;;2.60;;
4786;SDS011;62338;48.832;9.422;2023-07-28T01:16:45;3.80;;;2.70;;
4786;SDS011;62338;48.832;9.422;2023-07-28T01:18:47;3.80;;;2.83;;
4786;SDS011;62338;48.832;9.422;2023-07-28T01:20:49;2.47;;;2.27;;
4786;SDS011;62338;48.832;9.422;2023-07-28T01:27:49;2.40;;;2.20;;
4786;SDS011;62338;48.832;9.422;2023-07-28T01:29:52;2.63;;;2.43;;
4786;SDS011;62338;48.832;9.422;2023-07-28T01:31:55;2.40;;;2.30;;
4786;SDS011;62338;48.832;9.422;2023-07-28T01:34:01;2.43;;;2.23;;
4786;SDS011;62338;48.832;9.422;2023-07-28T01:36:02;3.43;;;2.50;;
4786;SDS011;62338;48.832;9.422;2023-07-28T01:38:05;4.63;;;2.73;;
4786;SDS011;62338;48.832;9.422;2023-07-28T01:40:07;2.90;;;2.33;;
4786;SDS011;62338;48.832;9.422;2023-07-28T01:42:09;2.93;;;2.20;;
4786;SDS011;62338;48.832;9.422;2023-07-28T01:44:11;3.30;;;2.50;;
4786;SDS011;62338;48.832;9.422;2023-07-28T01:46:12;3.50;;;2.50;;
4786;SDS011;62338;48.832;9.422;2023-07-28T01:48:14;3.00;;;2.70;;
4786;SDS011;62338;48.832;9.422;2023-07-28T01:50:16;2.90;;;2.70;;
4786;SDS011;62338;48.832;9.422;2023-07-28T01:52:18;2.97;;;2.70;;
4786;SDS011;62338;48.832;9.422;2023-07-28T01:54:20;3.10;;;2.57;;
4786;SDS011;62338;48.832;9.422;2023-07-28T01:56:22;4.07;;;2.30;;
4786;SDS011;62338;48.832;9.422;2023-07-28T01:58:23;2.93;;;2.20;;
4786;SDS011;62338;48.832;9.422;2023-07-28T02:00:25;3.30;;;3.00;;
4786;SDS011;62338;48.832;9.422;2023-07-28T02:02:28;2.20;;;1.93;;
4786;SDS011;62338;48.832;9.422;2023-07-28T02:04:30;2.20;;;2.10;;
4786;SDS011;62338;48.832;9.422;2023-07-28T02:06:32;2.67;;;2.30;;
4786;SDS011;62338;48.832;9.422;2023-07-28T02:08:34;3.13;;;2.50;;
4786;SDS011;62338;48.832;9.422;2023-07-28T02:10:36;2.73;;;2.40;;
4786;SDS011;62338;48.832;9.422;2023-07-28T02:12:38;3.57;;;2.00;;
4786;SDS011;62338;48.832;9.422;2023-07-28T02:14:40;2.43;;;2.23;;
4786;SDS011;62338;48.832;9.422;2023-07-28T02:16:41;6.07;;;2.40;;
4786;SDS011;62338;48.832;9.422;2023-07-28T02:18:43;2.77;;;2.53;;
4786;SDS011;62338;48.832;9.422;2023-07-28T02:20:47;2.50;;;2.30;;
4786;SDS011;62338;48.832;9.422;2023-07-28T02:22:50;2.03;;;1.93;;
4786;SDS011;62338;48.832;9.422;2023-07-28T02:24:52;2.50;;;2.10;;
4786;SDS011;62338;48.832;9.422;2023-07-28T02:26:53;2.70;;;2.50;;
4786;SDS011;62338;48.832;9.422;2023-07-28T02:28:56;8.00;;;2.77;;
4786;SDS011;62338;48.832;9.422;2023-07-28T02:30:57;2.47;;;2.27;;
4786;SDS011;62338;48.832;9.422;2023-07-28T02:32:59;3.47;;;2.50;;
4786;SDS011;62338;48.832;9.422;2023-07-28T02:35:01;2.50;;;2.30;;
4786;SDS011;62338;48.832;9.422;2023-07-28T02:37:03;2.90;;;2.60;;
4786;SDS011;62338;48.832;9.422;2023-07-28T02:39:05;2.23;;;2.03;;
4786;SDS011;62338;48.832;9.422;2023-07-28T02:41:06;2.97;;;2.73;;
4786;SDS011;62338;48.832;9.422;2023-07-28T02:43:08;3.00;;;2.30;;
4786;SDS011;62338;48.832;9.422;2023-07-28T02:45:10;2.40;;;2.20;;
4786;SDS011;62338;48.832;9.422;2023-07-28T02:47:12;2.47;;;2.27;;
4786;SDS011;62338;48.832;9.422;2023-07-28T02:49:13;2.33;;;2.13;;
4786;SDS011;62338;48.832;9.422;2023-07-28T02:51:15;3.40;;;2.27;;
4786;SDS011;62338;48.832;9.422;2023-07-28T02:53:17;2.00;;;1.90;;
4786;SDS011;62338;48.832;9.422;2023-07-28T02:55:19;4.03;;;2.30;;
4786;SDS011;62338;48.832;9.422;2023-07-28T02:57:21;3.33;;;2.40;;
4786;SDS011;62338;48.832;9.422;2023-07-28T02:59:23;3.20;;;2.90;;
4786;SDS011;62338;48.832;9.422;2023-07-28T03:01:25;4.10;;;2.67;;
4786;SDS011;62338;48.832;9.422;2023-07-28T03:03:26;5.23;;;2.73;;
4786;SDS011;62338;48.832;9.422;2023-07-28T03:05:28;2.50;;;2.30;;
4786;SDS011;62338;48.832;9.422;2023-07-28T03:07:32;2.60;;;2.40;;
4786;SDS011;62338;48.832;9.422;2023-07-28T03:09:34;3.93;;;2.50;;
4786;SDS011;62338;48.832;9.422;2023-07-28T03:11:36;2.40;;;2.20;;
4786;SDS011;62338;48.832;9.422;2023-07-28T03:13:38;2.53;;;2.33;;
4786;SDS011;62338;48.832;9.422;2023-07-28T03:15:40;2.93;;;2.63;;
4786;SDS011;62338;48.832;9.422;2023-07-28T03:17:41;3.43;;;2.50;;
4786;SDS011;62338;48.832;9.422;2023-07-28T03:19:43;3.37;;;3.07;;
4786;SDS011;62338;48.832;9.422;2023-07-28T03:21:45;2.80;;;2.50;;
4786;SDS011;62338;48.832;9.422;2023-07-28T03:23:47;6.20;;;2.60;;
4786;SDS011;62338;48.832;9.422;2023-07-28T03:25:48;3.00;;;2.70;;
4786;SDS011;62338;48.832;9.422;2023-07-28T03:27:50;2.93;;;2.40;;
4786;SDS011;62338;48.832;9.422;2023-07-28T03:29:54;5.63;;;3.03;;
4786;SDS011;62338;48.832;9.422;2023-07-28T03:31:56;3.63;;;3.10;;
4786;SDS011;62338;48.832;9.422;2023-07-28T03:33:57;6.30;;;3.03;;
4786;SDS011;62338;48.832;9.422;2023-07-28T03:35:59;3.60;;;2.93;;
4786;SDS011;62338;48.832;9.422;2023-07-28T03:38:01;3.30;;;3.00;;
4786;SDS011;62338;48.832;9.422;2023-07-28T03:40:03;2.97;;;2.77;;
4786;SDS011;62338;48.832;9.422;2023-07-28T03:42:06;3.83;;;2.40;;
4786;SDS011;62338;48.832;9.422;2023-07-28T03:44:08;3.03;;;2.73;;
4786;SDS011;62338;48.832;9.422;2023-07-28T03:46:10;6.73;;;2.83;;
4786;SDS011;62338;48.832;9.422;2023-07-28T03:48:12;3.10;;;2.40;;
4786;SDS011;62338;48.832;9.422;2023-07-28T03:50:14;4.87;;;2.97;;
4786;SDS011;62338;48.832;9.422;2023-07-28T03:52:16;2.77;;;2.47;;
4786;SDS011;62338;48.832;9.422;2023-07-28T03:54:18;4.17;;;2.63;;
4786;SDS011;62338;48.832;9.422;2023-07-28T03:56:22;4.53;;;2.90;;
4786;SDS011;62338;48.832;9.422;2023-07-28T03:58:24;2.83;;;2.63;;
4786;SDS011;62338;48.832;9.422;2023-07-28T04:00:26;2.83;;;2.53;;
4786;SDS011;62338;48.832;9.422;2023-07-28T04:02:28;3.93;;;2.60;;
4786;SDS011;62338;48.832;9.422;2023-07-28T04:04:30;4.73;;;3.23;;
4786;SDS011;62338;48.832;9.422;2023-07-28T04:06:48;4.00;;;3.37;;
4786;SDS011;62338;48.832;9.422;2023-07-28T04:08:51;2.93;;;2.70;;
4786;SDS011;62338;48.832;9.422;2023-07-28T04:10:53;5.07;;;3.50;;
4786;SDS011;62338;48.832;9.422;2023-07-28T04:12:55;3.03;;;2.73;;
4786;SDS011;62338;48.832;9.422;2023-07-28T04:14:57;3.17;;;2.70;;
4786;SDS011;62338;48.832;9.422;2023-07-28T04:16:58;5.23;;;3.20;;
4786;SDS011;62338;48.832;9.422;2023-07-28T04:19:00;3.53;;;3.20;;
4786;SDS011;62338;48.832;9.422;2023-07-28T04:21:02;3.80;;;2.53;;
4786;SDS011;62338;48.832;9.422;2023-07-28T04:23:04;3.37;;;3.07;;
4786;SDS011;62338;48.832;9.422;2023-07-28T04:25:06;3.90;;;2.83;;
4786;SDS011;62338;48.832;9.422;2023-07-28T04:27:08;2.87;;;2.63;;
4786;SDS011;62338;48.832;9.422;2023-07-28T04:29:10;4.60;;;3.30;;
4786;SDS011;62338;48.832;9.422;2023-07-28T04:31:12;3.17;;;2.73;;
4786;SDS011;62338;48.832;9.422;2023-07-28T04:33:14;3.40;;;3.10;;
4786;SDS011;62338;48.832;9.422;2023-07-28T04:35:17;4.13;;;2.70;;
4786;SDS011;62338;48.832;9.422;2023-07-28T04:37:18;3.70;;;3.10;;
4786;SDS011;62338;48.832;9.422;2023-07-28T04:39:20;4.40;;;3.20;;
4786;SDS011;62338;48.832;9.422;2023-07-28T04:41:22;3.33;;;3.03;;
4786;SDS011;62338;48.832;9.422;2023-07-28T04:43:24;3.10;;;2.87;;
4786;SDS011;62338;48.832;9.422;2023-07-28T04:45:25;4.07;;;2.97;;
4786;SDS011;62338;48.832;9.422;2023-07-28T04:47:27;4.47;;;2.90;;
4786;SDS011;62338;48.832;9.422;2023-07-28T04:49:29;5.37;;;3.30;;
4786;SDS011;62338;48.832;9.422;2023-07-28T04:51:31;4.50;;;3.27;;
4786;SDS011;62338;48.832;9.422;2023-07-28T04:53:33;3.40;;;3.10;;
4786;SDS011;62338;48.832;9.422;2023-07-28T04:55:35;3.20;;;2.90;;
4786;SDS011;62338;48.832;9.422;2023-07-28T04:57:36;4.80;;;3.63;;
4786;SDS011;62338;48.832;9.422;2023-07-28T04:59:39;3.97;;;3.53;;
4786;SDS011;62338;48.832;9.422;2023-07-28T05:01:40;4.87;;;3.37;;
4786;SDS011;62338;48.832;9.422;2023-07-28T05:03:42;3.30;;;3.00;;
4786;SDS011;62338;48.832;9.422;2023-07-28T05:05:44;4.97;;;3.60;;
4786;SDS011;62338;48.832;9.422;2023-07-28T05:07:46;6.93;;;4.30;;
4786;SDS011;62338;48.832;9.422;2023-07-28T05:09:47;7.47;;;4.63;;
4786;SDS011;62338;48.832;9.422;2023-07-28T05:11:49;3.30;;;3.00;;
4786;SDS011;62338;48.832;9.422;2023-07-28T05:13:51;3.93;;;3.53;;
4786;SDS011;62338;48.832;9.422;2023-07-28T05:15:53;6.50;;;4.10;;
4786;SDS011;62338;48.832;9.422;2023-07-28T05:17:54;4.00;;;3.60;;
4786;SDS011;62338;48.832;9.422;2023-07-28T05:19:56;4.60;;;3.17;;
4786;SDS011;62338;48.832;9.422;2023-07-28T05:21:58;4.70;;;4.10;;
4786;SDS011;62338;48.832;9.422;2023-07-28T05:24:00;5.50;;;4.13;;
4786;SDS011;62338;48.832;9.422;2023-07-28T05:26:01;4.53;;;3.67;;
4786;SDS011;62338;48.832;9.422;2023-07-28T05:28:03;4.50;;;4.10;;
4786;SDS011;62338;48.832;9.422;2023-07-28T05:30:05;4.27;;;3.87;;
4786;SDS011;62338;48.832;9.422;2023-07-28T05:32:08;4.37;;;3.83;;
4786;SDS011;62338;48.832;9.422;2023-07-28T05:34:09;6.30;;;4.00;;
4786;SDS011;62338;48.832;9.422;2023-07-28T05:36:13;6.60;;;4.30;;
4786;SDS011;62338;48.832;9.422;2023-07-28T05:38:15;8.03;;;4.40;;
4786;SDS011;62338;48.832;9.422;2023-07-28T05:40:16;5.03;;;4.03;;
4786;SDS011;62338;48.832;9.422;2023-07-28T05:42:18;4.40;;;3.70;;
4786;SDS011;62338;48.832;9.422;2023-07-28T05:44:20;5.57;;;4.23;;
4786;SDS011;62338;48.832;9.422;2023-07-28T05:46:22;6.50;;;3.60;;
4786;SDS011;62338;48.832;9.422;2023-07-28T05:48:24;6.40;;;4.30;;
4786;SDS011;62338;48.832;9.422;2023-07-28T05:50:26;5.60;;;4.47;;
4786;SDS011;62338;48.832;9.422;2023-07-28T05:52:27;6.10;;;4.70;;
4786;SDS011;62338;48.832;9.422;2023-07-28T05:54:29;5.77;;;4.20;;
4786;SDS011;62338;48.832;9.422;2023-07-28T05:56:31;4.50;;;4.07;;
4786;SDS011;62338;48.832;9.422;2023-07-28T05:58:33;6.40;;;4.67;;
4786;SDS011;62338;48.832;9.422;2023-07-28T06:00:34;8.20;;;4.57;;
4786;SDS011;62338;48.832;9.422;2023-07-28T06:02:39;6.00;;;4.27;;
4786;SDS011;62338;48.832;9.422;2023-07-28T06:04:41;7.63;;;5.20;;
4786;SDS011;62338;48.832;9.422;2023-07-28T06:06:43;7.43;;;4.47;;
4786;SDS011;62338;48.832;9.422;2023-07-28T06:08:45;5.63;;;4.30;;
4786;SDS011;62338;48.832;9.422;2023-07-28T06:10:46;7.20;;;4.90;;
4786;SDS011;62338;48.832;9.422;2023-07-28T06:12:48;5.20;;;4.70;;
4786;SDS011;62338;48.832;9.422;2023-07-28T06:14:50;4.70;;;4.10;;
4786;SDS011;62338;48.832;9.422;2023-07-28T06:16:52;5.73;;;5.23;;
4786;SDS011;62338;48.832;9.422;2023-07-28T06:18:54;5.57;;;4.20;;
4786;SDS011;62338;48.832;9.422;2023-07-28T06:20:55;7.53;;;4.73;;
4786;SDS011;62338;48.832;9.422;2023-07-28T06:22:57;5.30;;;4.60;;
4786;SDS011;62338;48.832;9.422;2023-07-28T06:24:59;5.60;;;4.57;;
4786;SDS011;62338;48.832;9.422;2023-07-28T06:27:01;5.50;;;5.00;;
4786;SDS011;62338;48.832;9.422;2023-07-28T06:29:08;6.97;;;4.73;;
4786;SDS011;62338;48.832;9.422;2023-07-28T06:31:10;5.77;;;4.70;;
4786;SDS011;62338;48.832;9.422;2023-07-28T06:33:11;6.37;;;4.90;;
4786;SDS011;62338;48.832;9.422;2023-07-28T06:35:13;6.90;;;5.13;;
4786;SDS011;62338;48.832;9.422;2023-07-28T06:37:15;8.30;;;6.37;;
4786;SDS011;62338;48.832;9.422;2023-07-28T06:39:18;6.00;;;5.00;;
4786;SDS011;62338;48.832;9.422;2023-07-28T06:41:19;5.83;;;4.83;;
4786;SDS011;62338;48.832;9.422;2023-07-28T06:43:21;7.40;;;4.63;;
4786;SDS011;62338;48.832;9.422;2023-07-28T06:45:23;7.60;;;5.50;;
4786;SDS011;62338;48.832;9.422;2023-07-28T06:47:25;7.73;;;5.40;;
4786;SDS011;62338;48.832;9.422;2023-07-28T06:49:26;7.60;;;5.23;;
4786;SDS011;62338;48.832;9.422;2023-07-28T06:51:28;12.30;;;5.83;;
4786;SDS011;62338;48.832;9.422;2023-07-28T06:53:30;7.03;;;5.70;;
4786;SDS011;62338;48.832;9.422;2023-07-28T06:55:32;15.50;;;5.63;;
4786;SDS011;62338;48.832;9.422;2023-07-28T06:57:34;5.00;;;4.60;;
4786;SDS011;62338;48.832;9.422;2023-07-28T06:59:36;8.17;;;6.50;;
4786;SDS011;62338;48.832;9.422;2023-07-28T07:01:38;8.07;;;5.43;;
4786;SDS011;62338;48.832;9.422;2023-07-28T07:03:40;7.70;;;5.93;;
4786;SDS011;62338;48.832;9.422;2023-07-28T07:05:42;7.20;;;5.93;;
4786;SDS011;62338;48.832;9.422;2023-07-28T07:07:45;9.10;;;5.13;;
4786;SDS011;62338;48.832;9.422;2023-07-28T07:09:46;12.13;;;6.47;;
4786;SDS011;62338;48.832;9.422;2023-07-28T07:11:48;6.30;;;5.40;;
4786;SDS011;62338;48.832;9.422;2023-07-28T07:13:50;5.73;;;5.13;;
4786;SDS011;62338;48.832;9.422;2023-07-28T07:15:52;11.10;;;5.60;;
4786;SDS011;62338;48.832;9.422;2023-07-28T07:17:54;8.43;;;4.87;;
4786;SDS011;62338;48.832;9.422;2023-07-28T07:19:56;10.00;;;5.40;;
4786;SDS011;62338;48.832;9.422;2023-07-28T07:21:57;6.00;;;5.23;;
4786;SDS011;62338;48.832;9.422;2023-07-28T07:23:59;7.50;;;4.60;;
4786;SDS011;62338;48.832;9.422;2023-07-28T07:26:01;7.77;;;5.00;;
4786;SDS011;62338;48.832;9.422;2023-07-28T07:28:03;6.13;;;4.60;;
4786;SDS011;62338;48.832;9.422;2023-07-28T07:30:05;7.03;;;4.60;;
4786;SDS011;62338;48.832;9.422;2023-07-28T07:32:07;7.80;;;5.10;;
4786;SDS011;62338;48.832;9.422;2023-07-28T07:34:11;5.50;;;4.67;;
4786;SDS011;62338;48.832;9.422;2023-07-28T07:36:13;6.40;;;4.80;;
4786;SDS011;62338;48.832;9.422;2023-07-28T07:38:15;5.30;;;4.80;;
4786;SDS011;62338;48.832;9.422;2023-07-28T07:40:17;5.30;;;4.80;;
4786;SDS011;62338;48.832;9.422;2023-07-28T07:42:19;7.30;;;4.77;;
4786;SDS011;62338;48.832;9.422;2023-07-28T07:44:21;7.47;;;5.27;;
4786;SDS011;62338;48.832;9.422;2023-07-28T07:46:23;5.70;;;4.30;;
4786;SDS011;62338;48.832;9.422;2023-07-28T07:48:25;6.67;;;5.00;;
4786;SDS011;62338;48.832;9.422;2023-07-28T07:50:27;8.53;;;4.67;;
4786;SDS011;62338;48.832;9.422;2023-07-28T07:52:29;6.47;;;4.40;;
4786;SDS011;62338;48.832;9.422;2023-07-28T07:54:31;6.40;;;5.30;;
4786;SDS011;62338;48.832;9.422;2023-07-28T07:56:33;6.73;;;4.97;;
4786;SDS011;62338;48.832;9.422;2023-07-28T07:58:35;6.17;;;5.20;;
4786;SDS011;62338;48.832;9.422;2023-07-28T08:00:37;9.20;;;4.83;;
4786;SDS011;62338;48.832;9.422;2023-07-28T08:02:40;5.03;;;4.50;;
4786;SDS011;62338;48.832;9.422;2023-07-28T08:04:46;4.50;;;3.87;;
4786;SDS011;62338;48.832;9.422;2023-07-28T08:06:48;6.50;;;4.33;;
4786;SDS011;62338;48.832;9.422;2023-07-28T08:08:50;5.27;;;3.77;;
4786;SDS011;62338;48.832;9.422;2023-07-28T08:10:53;4.53;;;4.10;;
4786;SDS011;62338;48.832;9.422;2023-07-28T08:12:55;4.20;;;3.80;;
4786;SDS011;62338;48.832;9.422;2023-07-28T08:14:57;4.80;;;3.90;;
4786;SDS011;62338;48.832;9.422;2023-07-28T08:16:59;4.60;;;4.20;;
4786;SDS011;62338;48.832;9.422;2023-07-28T08:19:01;3.60;;;3.30;;
4786;SDS011;62338;48.832;9.422;2023-07-28T08:21:03;4.73;;;3.77;;
4786;SDS011;62338;48.832;9.422;2023-07-28T08:23:05;5.10;;;3.60;;
4786;SDS011;62338;48.832;9.422;2023-07-28T08:25:07;4.33;;;3.93;;
4786;SDS011;62338;48.832;9.422;2023-07-28T08:27:09;5.13;;;4.37;;
4786;SDS011;62338;48.832;9.422;2023-07-28T08:29:11;4.50;;;4.10;;
4786;SDS011;62338;48.832;9.422;2023-07-28T08:31:13;5.13;;;4.13;;
4786;SDS011;62338;48.832;9.422;2023-07-28T08:33:15;6.50;;;3.67;;
4786;SDS011;62338;48.832;9.422;2023-07-28T08:35:16;8.47;;;4.57;;
4786;SDS011;62338;48.832;9.422;2023-07-28T08:37:19;6.50;;;3.87;;
4786;SDS011;62338;48.832;9.422;2023-07-28T08:39:20;6.67;;;5.60;;
4786;SDS011;62338;48.832;9.422;2023-07-28T08:41:22;5.93;;;5.13;;
4786;SDS011;62338;48.832;9.422;2023-07-28T08:43:24;7.80;;;4.97;;
4786;SDS011;62338;48.832;9.422;2023-07-28T08:45:26;4.43;;;4.00;;
4786;SDS011;62338;48.832;9.422;2023-07-28T08:47:29;5.60;;;4.33;;
4786;SDS011;62338;48.832;9.422;2023-07-28T08:49:31;5.53;;;4.60;;
4786;SDS011;62338;48.832;9.422;2023-07-28T08:51:34;5.27;;;4.77;;
4786;SDS011;62338;48.832;9.422;2023-07-28T08:53:36;6.43;;;5.50;;
4786;SDS011;62338;48.832;9.422;2023-07-28T08:55:39;5.03;;;4.57;;
4786;SDS011;62338;48.832;9.422;2023-07-28T08:57:40;6.80;;;4.57;;
4786;SDS011;62338;48.832;9.422;2023-07-28T08:59:43;6.30;;;5.30;;
4786;SDS011;62338;48.832;9.422;2023-07-28T09:01:49;7.00;;;5.40;;
4786;SDS011;62338;48.832;9.422;2023-07-28T09:03:51;4.77;;;4.27;;
4786;SDS011;62338;48.832;9.422;2023-07-28T09:05:58;5.57;;;4.87;;
4786;SDS011;62338;48.832;9.422;2023-07-28T09:08:02;6.63;;;4.97;;
4786;SDS011;62338;48.832;9.422;2023-07-28T09:10:06;6.37;;;5.47;;
4786;SDS011;62338;48.832;9.422;2023-07-28T09:12:09;6.63;;;5.40;;
4786;SDS011;62338;48.832;9.422;2023-07-28T09:14:11;6.30;;;4.67;;
4786;SDS011;62338;48.832;9.422;2023-07-28T09:16:20;5.60;;;5.10;;
4786;SDS011;62338;48.832;9.422;2023-07-28T09:18:23;4.80;;;4.30;;
4786;SDS011;62338;48.832;9.422;2023-07-28T09:20:34;5.73;;;5.07;;
4786;SDS011;62338;48.832;9.422;2023-07-28T09:22:37;4.50;;;3.80;;
4786;SDS011;62338;48.832;9.422;2023-07-28T09:24:39;9.03;;;5.13;;
4786;SDS011;62338;48.832;9.422;2023-07-28T09:26:45;5.60;;;4.63;;
4786;SDS011;62338;48.832;9.422;2023-07-28T09:28:47;5.47;;;4.63;;
4786;SDS011;62338;48.832;9.422;2023-07-28T09:30:50;8.30;;;4.90;;
4786;SDS011;62338;48.832;9.422;2023-07-28T09:32:53;6.17;;;3.97;;
4786;SDS011;62338;48.832;9.422;2023-07-28T09:35:05;5.40;;;3.97;;
4786;SDS011;62338;48.832;9.422;2023-07-28T09:37:09;4.03;;;3.60;;
4786;SDS011;62338;48.832;9.422;2023-07-28T09:39:12;8.90;;;3.47;;
4786;SDS011;62338;48.832;9.422;2023-07-28T09:41:14;8.50;;;4.00;;
4786;SDS011;62338;48.832;9.422;2023-07-28T09:43:15;3.17;;;2.87;;
4786;SDS011;62338;48.832;9.422;2023-07-28T09:45:17;3.60;;;3.13;;
4786;SDS011;62338;48.832;9.422;2023-07-28T09:47:38;3.57;;;2.77;;
4786;SDS011;62338;48.832;9.422;2023-07-28T09:49:41;4.10;;;2.80;;
4786;SDS011;62338;48.832;9.422;2023-07-28T09:51:47;5.10;;;3.30;;
4786;SDS011;62338;48.832;9.422;2023-07-28T09:53:53;3.50;;;2.83;;
4786;SDS011;62338;48.832;9.422;2023-07-28T09:55:59;4.50;;;3.20;;
4786;SDS011;62338;48.832;9.422;2023-07-28T09:58:04;3.40;;;3.03;;
4786;SDS011;62338;48.832;9.422;2023-07-28T10:00:08;3.20;;;2.90;;
4786;SDS011;62338;48.832;9.422;2023-07-28T10:02:12;3.80;;;2.80;;
4786;SDS011;62338;48.832;9.422;2023-07-28T10:04:15;2.50;;;2.30;;
4786;SDS011;62338;48.832;9.422;2023-07-28T10:06:19;3.30;;;2.57;;
4786;SDS011;62338;48.832;9.422;2023-07-28T10:08:25;2.63;;;2.43;;
4786;SDS011;62338;48.832;9.422;2023-07-28T10:10:27;3.17;;;2.60;;
4786;SDS011;62338;48.832;9.422;2023-07-28T10:12:29;2.75;;;2.50;;
4786;SDS011;62338;48.832;9.422;2023-07-28T10:14:34;2.40;;;2.20;;
4786;SDS011;62338;48.832;9.422;2023-07-28T10:16:39;4.07;;;2.15;;
4786;SDS011;62338;48.832;9.422;2023-07-28T10:18:41;3.45;;;2.90;;
4786;SDS011;62338;48.832;9.422;2023-07-28T10:20:54;5.17;;;2.60;;
4786;SDS011;62338;48.832;9.422;2023-07-28T10:23:11;2.80;;;2.60;;
4786;SDS011;62338;48.832;9.422;2023-07-28T10:25:21;3.70;;;3.40;;
4786;SDS011;62338;48.832;9.422;2023-07-28T10:28:08;2.90;;;2.70;;
4786;SDS011;62338;48.832;9.422;2023-07-28T10:30:01;3.27;;;2.97;;
4786;SDS011;62338;48.832;9.422;2023-07-28T10:32:06;2.50;;;2.30;;
4786;SDS011;62338;48.832;9.422;2023-07-28T10:34:08;2.43;;;2.23;;
4786;SDS011;62338;48.832;9.422;2023-07-28T10:38:27;2.70;;;2.47;;
4786;SDS011;62338;48.832;9.422;2023-07-28T10:40:34;2.80;;;2.00;;
4786;SDS011;62338;48.832;9.422;2023-07-28T10:42:36;2.67;;;2.33;;
4786;SDS011;62338;48.832;9.422;2023-07-28T10:44:38;2.50;;;2.30;;
4786;SDS011;62338;48.832;9.422;2023-07-28T10:46:41;3.07;;;2.50;;
4786;SDS011;62338;48.832;9.422;2023-07-28T10:48:45;3.30;;;3.00;;
4786;SDS011;62338;48.832;9.422;2023-07-28T10:50:49;2.57;;;2.37;;
4786;SDS011;62338;48.832;9.422;2023-07-28T10:52:51;3.03;;;2.73;;
4786;SDS011;62338;48.832;9.422;2023-07-28T10:54:53;2.27;;;2.07;;
4786;SDS011;62338;48.832;9.422;2023-07-28T10:56:55;2.73;;;2.07;;
4786;SDS011;62338;48.832;9.422;2023-07-28T11:01:04;2.67;;;2.20;;
4786;SDS011;62338;48.832;9.422;2023-07-28T11:03:07;2.40;;;2.20;;
4786;SDS011;62338;48.832;9.422;2023-07-28T11:05:11;4.67;;;2.73;;
4786;SDS011;62338;48.832;9.422;2023-07-28T11:07:25;2.47;;;2.27;;
4786;SDS011;62338;48.832;9.422;2023-07-28T11:09:27;3.20;;;2.90;;
4786;SDS011;62338;48.832;9.422;2023-07-28T11:11:29;3.37;;;2.90;;
4786;SDS011;62338;48.832;9.422;2023-07-28T11:13:31;5.50;;;2.70;;
4786;SDS011;62338;48.832;9.422;2023-07-28T11:15:41;3.33;;;2.47;;
4786;SDS011;62338;48.832;9.422;2023-07-28T11:17:45;3.23;;;2.80;;
4786;SDS011;62338;48.832;9.422;2023-07-28T11:19:48;8.43;;;2.50;;
4786;SDS011;62338;48.832;9.422;2023-07-28T11:21:50;2.63;;;2.20;;
4786;SDS011;62338;48.832;9.422;2023-07-28T11:23:53;2.47;;;2.27;;
4786;SDS011;62338;48.832;9.422;2023-07-28T11:25:55;2.60;;;2.40;;
4786;SDS011;62338;48.832;9.422;2023-07-28T11:27:57;4.07;;;2.50;;
4786;SDS011;62338;48.832;9.422;2023-07-28T11:29:59;3.13;;;2.83;;
4786;SDS011;62338;48.832;9.422;2023-07-28T11:32:04;2.70;;;2.50;;
4786;SDS011;62338;48.832;9.422;2023-07-28T11:34:14;2.87;;;2.27;;
4786;SDS011;62338;48.832;9.422;2023-07-28T11:36:22;2.83;;;2.40;;
4786;SDS011;62338;48.832;9.422;2023-07-28T11:38:28;2.87;;;2.03;;
4786;SDS011;62338;48.832;9.422;2023-07-28T11:40:31;2.27;;;2.07;;
4786;SDS011;62338;48.832;9.422;2023-07-28T11:42:34;2.53;;;2.33;;
4786;SDS011;62338;48.832;9.422;2023-07-28T11:44:37;2.13;;;1.97;;
4786;SDS011;62338;48.832;9.422;2023-07-28T11:46:39;2.33;;;2.13;;
4786;SDS011;62338;48.832;9.422;2023-07-28T11:48:43;3.97;;;2.23;;
4786;SDS011;62338;48.832;9.422;2023-07-28T11:50:45;2.00;;;1.90;;
4786;SDS011;62338;48.832;9.422;2023-07-28T11:52:46;2.70;;;1.73;;
4786;SDS011;62338;48.832;9.422;2023-07-28T11:54:48;4.43;;;2.08;;
4786;SDS011;62338;48.832;9.422;2023-07-28T11:56:51;2.47;;;1.60;;
4786;SDS011;62338;48.832;9.422;2023-07-28T11:58:55;2.33;;;1.88;;
4786;SDS011;62338;48.832;9.422;2023-07-28T12:00:57;1.83;;;1.70;;
4786;SDS011;62338;48.832;9.422;2023-07-28T12:03:00;2.22;;;1.58;;
4786;SDS011;62338;48.832;9.422;2023-07-28T12:05:03;2.72;;;2.00;;
4786;SDS011;62338;48.832;9.422;2023-07-28T12:07:14;5.18;;;1.92;;
4786;SDS011;62338;48.832;9.422;2023-07-28T12:09:18;3.35;;;1.65;;
4786;SDS011;62338;48.832;9.422;2023-07-28T12:11:20;2.40;;;2.05;;
4786;SDS011;62338;48.832;9.422;2023-07-28T12:13:51;1.92;;;1.80;;
4786;SDS011;62338;48.832;9.422;2023-07-28T12:15:55;2.38;;;2.17;;
4786;SDS011;62338;48.832;9.422;2023-07-28T12:20:15;2.45;;;2.00;;
4786;SDS011;62338;48.832;9.422;2023-07-28T12:22:18;3.85;;;1.88;;
4786;SDS011;62338;48.832;9.422;2023-07-28T12:24:20;1.83;;;1.70;;
4786;SDS011;62338;48.832;9.422;2023-07-28T12:26:21;2.70;;;1.67;;
4786;SDS011;62338;48.832;9.422;2023-07-28T12:28:23;1.75;;;1.65;;
4786;SDS011;62338;48.832;9.422;2023-07-28T12:30:27;2.95;;;2.03;;
4786;SDS011;62338;48.832;9.422;2023-07-28T12:32:29;4.90;;;1.97;;
4786;SDS011;62338;48.832;9.422;2023-07-28T12:34:34;3.30;;;2.23;;
4786;SDS011;62338;48.832;9.422;2023-07-28T12:36:51;3.90;;;2.30;;
4786;SDS011;62338;48.832;9.422;2023-07-28T12:38:55;2.43;;;2.23;;
4786;SDS011;62338;48.832;9.422;2023-07-28T12:40:57;2.67;;;2.47;;
4786;SDS011;62338;48.832;9.422;2023-07-28T12:43:02;2.47;;;2.20;;
4786;SDS011;62338;48.832;9.422;2023-07-28T12:45:07;2.27;;;2.07;;